Time;durP1;ratioP1;P1;durP2;ratioP2;P2;SDS_P1;SDS_P2;PMS_P1;PMS_P2;Temp;Humidity;BMP_temperature;BMP_pressure;BME280_temperature;BME280_humidity;BME280_pressure;Samples;Min_cycle;Max_cycle;Signal;HPM_P1;HPM_P2
2022/03/30 00:02:22;;;;;;;8.20;5.30;;;;;;;6.10;65.29;97689.08;105037;1271;76150;-26
2022/03/30 00:04:52;;;;;;;8.20;5.40;;;;;;;6.01;65.90;97688.33;105024;1270;73399;-26
2022/03/30 00:07:21;;;;;;;6.90;5.00;;;;;;;5.95;66.22;97685.64;105027;1271;61033;-26
2022/03/30 00:09:50;;;;;;;8.50;4.90;;;;;;;5.96;64.90;97686.42;105007;1269;62047;-26
2022/03/30 00:12:19;;;;;;;6.20;4.40;;;;;;;5.96;64.68;97686.75;104807;1271;75511;-26
2022/03/30 00:14:49;;;;;;;9.00;4.20;;;;;;;5.92;65.55;97691.61;104978;1270;75418;-26
2022/03/30 00:17:18;;;;;;;14.60;4.70;;;;;;;5.88;65.79;97695.75;105018;1270;74538;-26
2022/03/30 00:19:48;;;;;;;7.70;4.00;;;;;;;6.43;65.55;97697.20;104849;1274;62122;-26
2022/03/30 00:22:17;;;;;;;10.40;5.10;;;;;;;7.15;64.05;97698.69;105028;1270;61840;-26
2022/03/30 00:24:51;;;;;;;8.90;5.20;;;;;;;7.36;62.88;97700.21;105223;1271;75363;-26
2022/03/30 00:27:21;;;;;;;10.10;5.60;;;;;;;7.26;62.60;97699.25;105189;1270;76447;-26
2022/03/30 00:29:51;;;;;;;7.80;5.30;;;;;;;7.10;62.89;97698.83;104895;1270;74213;-26
2022/03/30 00:32:20;;;;;;;6.80;4.80;;;;;;;6.92;63.47;97702.83;104808;1271;61080;-26
2022/03/30 00:36:27;;;;;;;6.70;4.70;;;;;;;6.68;64.43;97698.98;101957;1306;601189;-25
2022/03/30 00:38:57;;;;;;;12.10;5.70;;;;;;;6.48;64.59;97702.09;104398;1284;61464;-25
2022/03/30 00:41:29;;;;;;;13.80;4.90;;;;;;;6.30;65.19;97701.58;104303;1287;61271;-26
2022/03/30 00:43:57;;;;;;;6.40;4.70;;;;;;;6.13;65.91;97706.80;103797;1287;73700;-28
2022/03/30 00:46:27;;;;;;;8.10;5.80;;;;;;;5.98;66.41;97704.75;104315;1287;76108;-28
2022/03/30 00:48:56;;;;;;;8.90;5.30;;;;;;;5.86;67.01;97706.27;103960;1287;414616;-28
2022/03/30 00:51:25;;;;;;;7.40;4.10;;;;;;;5.78;67.28;97702.09;104243;1284;61925;-28
2022/03/30 00:53:54;;;;;;;6.70;4.00;;;;;;;6.28;67.76;97701.70;104489;1284;61793;-29
2022/03/30 00:56:24;;;;;;;9.30;4.80;;;;;;;6.96;66.62;97706.97;104486;1284;73021;-28
2022/03/30 00:58:53;;;;;;;8.10;5.40;;;;;;;7.10;66.00;97704.48;104167;1284;76180;-28
2022/03/30 01:01:23;;;;;;;9.80;6.00;;;;;;;6.99;65.97;97704.05;104916;1271;74195;-28
2022/03/30 01:03:53;;;;;;;9.80;6.00;;;;;;;6.82;66.23;97699.54;105037;1271;61105;-28
2022/03/30 01:06:22;;;;;;;8.00;5.20;;;;;;;6.65;66.19;97693.39;104750;1272;61230;-29
2022/03/30 01:08:52;;;;;;;7.70;5.10;;;;;;;6.50;66.54;97686.91;104884;1272;75541;-28
2022/03/30 01:11:23;;;;;;;7.30;4.70;;;;;;;6.33;66.96;97681.34;104920;1271;76094;-28
2022/03/30 01:13:52;;;;;;;12.00;5.90;;;;;;;6.14;68.26;97678.29;104811;1271;74149;-26
2022/03/30 01:16:37;;;;;;;9.40;5.50;;;;;;;5.96;68.38;97672.65;104755;1274;61025;-26
2022/03/30 01:19:08;;;;;;;11.30;5.80;;;;;;;5.86;69.17;97672.63;104824;1272;61866;-26
2022/03/30 01:21:51;;;;;;;6.80;4.70;;;;;;;5.81;68.51;97674.44;104623;1271;74826;-28
2022/03/30 01:24:21;;;;;;;5.00;3.80;;;;;;;6.47;68.79;97676.02;104988;1271;74152;-28
2022/03/30 01:26:50;;;;;;;6.80;4.50;;;;;;;7.11;67.30;97678.06;104924;1271;74672;-26
2022/03/30 01:32:26;;;;;;;7.70;5.10;;;;;;;7.01;66.65;97671.96;105114;1271;62127;-26
2022/03/30 01:35:00;;;;;;;8.50;5.60;;;;;;;6.72;67.04;97668.14;105074;1271;74794;-26
2022/03/30 01:37:29;;;;;;;;;;;;;;;6.41;67.97;97665.25;104670;1274;76415;-26
2022/03/30 01:40:00;;;;;;;10.00;4.90;;;;;;;6.18;68.27;97666.01;104863;1271;74420;-26
2022/03/30 01:42:30;;;;;;;6.50;4.50;;;;;;;5.97;68.71;97663.13;104785;1274;61129;-26
2022/03/30 01:44:59;;;;;;;7.40;5.20;;;;;;;5.77;69.33;97659.29;104711;1271;62016;-26
2022/03/30 01:47:28;;;;;;;5.90;4.40;;;;;;;5.61;70.29;97652.02;104825;1271;72238;-26
2022/03/30 01:49:57;;;;;;;9.50;4.60;;;;;;;6.03;70.76;97650.39;105094;1273;76254;-26
2022/03/30 01:52:27;;;;;;;5.90;4.50;;;;;;;6.59;69.28;97649.58;105069;1271;74142;-26
2022/03/30 01:54:56;;;;;;;10.60;5.70;;;;;;;6.69;68.45;97646.99;105125;1274;61826;-26
2022/03/30 01:57:26;;;;;;;12.40;6.30;;;;;;;6.53;68.17;97646.84;105112;1271;62030;-26
2022/03/30 01:59:55;;;;;;;9.30;6.40;;;;;;;6.31;68.52;97651.86;105075;1272;74538;-26
2022/03/30 02:02:24;;;;;;;12.30;6.10;;;;;;;6.20;68.00;97652.59;104854;1274;76126;-26
2022/03/30 02:04:53;;;;;;;9.20;5.80;;;;;;;6.07;68.04;97658.23;104979;1274;74468;-26
2022/03/30 02:07:22;;;;;;;9.00;5.60;;;;;;;5.90;68.71;97662.52;105041;1274;61013;-26
2022/03/30 02:10:11;;;;;;;8.80;5.60;;;;;;;5.70;69.16;97662.45;105053;1271;61249;-26
2022/03/30 02:12:41;;;;;;;7.20;5.80;;;;;;;5.56;68.78;97663.44;105048;1274;74048;-26
2022/03/30 02:15:26;;;;;;;5.90;4.10;;;;;;;5.47;68.96;97666.70;105088;1274;76074;-26
2022/03/30 02:17:57;;;;;;;7.70;5.10;;;;;;;6.08;69.46;97663.92;105127;1274;73421;-26
2022/03/30 02:20:29;;;;;;;8.30;5.40;;;;;;;6.77;68.16;97660.13;104849;1272;61218;-26
2022/03/30 02:22:59;;;;;;;7.10;4.90;;;;;;;6.90;67.27;97662.47;105102;1274;61205;-26
2022/03/30 02:25:28;;;;;;;9.10;5.40;;;;;;;6.73;67.15;97657.73;105168;1274;74573;-26
2022/03/30 02:27:57;;;;;;;10.90;5.70;;;;;;;6.49;67.42;97659.29;105086;1274;75068;-26
2022/03/30 02:30:26;;;;;;;7.60;5.50;;;;;;;6.25;67.62;97654.27;105155;1271;74720;-26
2022/03/30 02:32:57;;;;;;;10.10;6.20;;;;;;;5.98;68.97;97657.19;104978;1274;61099;-26
2022/03/30 02:35:27;;;;;;;8.80;5.80;;;;;;;5.74;70.08;97656.12;105105;1273;62157;-26
2022/03/30 02:37:58;;;;;;;9.00;5.70;;;;;;;5.58;70.45;97653.64;104769;1274;75493;-26
2022/03/30 02:40:27;;;;;;;8.90;5.20;;;;;;;5.49;69.69;97653.15;104845;1274;74222;-26
2022/03/30 02:42:57;;;;;;;8.20;4.40;;;;;;;5.40;69.83;97648.91;104846;1274;74394;-26
2022/03/30 02:45:26;;;;;;;6.70;4.30;;;;;;;5.86;70.48;97650.61;104783;1274;61874;-26
2022/03/30 02:50:52;;;;;;;9.20;5.80;;;;;;;6.44;68.44;97655.73;104749;1274;74763;-26
2022/03/30 02:53:21;;;;;;;10.40;5.70;;;;;;;6.29;68.70;97653.16;104785;1274;75791;-26
2022/03/30 02:55:51;;;;;;;9.80;6.30;;;;;;;6.02;69.64;97652.39;105073;1274;73383;-26
2022/03/30 02:58:21;;;;;;;9.20;6.60;;;;;;;5.84;70.45;97649.36;105123;1274;61067;-26
2022/03/30 03:00:50;;;;;;;8.90;6.30;;;;;;;5.64;71.33;97648.31;105039;1274;61790;-26
2022/03/30 03:03:19;;;;;;;13.50;7.50;;;;;;;5.45;72.04;97648.11;104942;1272;75181;-26
2022/03/30 03:05:49;;;;;;;8.00;5.60;;;;;;;5.35;72.46;97649.10;105143;1274;76351;-26
2022/03/30 03:08:38;;;;;;;9.10;5.50;;;;;;;5.83;71.35;97648.92;105005;1274;74764;-26
2022/03/30 03:11:07;;;;;;;13.40;7.40;;;;;;;6.22;69.86;97649.98;105054;1274;61205;-26
2022/03/30 03:13:37;;;;;;;10.10;6.10;;;;;;;6.16;69.78;97655.36;104960;1274;61048;-26
2022/03/30 03:16:06;;;;;;;12.00;7.60;;;;;;;5.92;70.48;97655.45;104768;1274;74816;-26
2022/03/30 03:18:36;;;;;;;13.30;7.90;;;;;;;5.73;71.24;97653.21;104797;1274;76013;-26
2022/03/30 03:21:05;;;;;;;14.70;7.40;;;;;;;5.69;70.76;97653.73;104821;1274;73383;-26
2022/03/30 03:23:35;;;;;;;10.10;7.10;;;;;;;5.66;69.94;97655.89;105107;1274;61023;-26
2022/03/30 03:26:04;;;;;;;10.70;6.70;;;;;;;5.58;70.34;97658.99;105063;1274;61981;-26
2022/03/30 03:28:33;;;;;;;8.70;5.30;;;;;;;5.48;70.29;97662.36;104772;1274;74754;-26
2022/03/30 03:31:03;;;;;;;8.20;4.90;;;;;;;6.00;70.56;97661.70;104735;1274;76009;-26
2022/03/30 03:33:33;;;;;;;10.10;6.20;;;;;;;6.64;69.30;97665.17;104791;1272;74423;-26
2022/03/30 03:36:02;;;;;;;11.30;6.00;;;;;;;6.77;68.48;97667.22;105027;1271;61996;-27
2022/03/30 03:38:31;;;;;;;10.20;6.60;;;;;;;6.66;68.56;97668.80;104786;1274;61327;-26
2022/03/30 03:41:00;;;;;;;9.90;7.10;;;;;;;6.48;69.02;97667.98;104882;1274;73568;-27
2022/03/30 03:43:30;;;;;;;11.70;7.00;;;;;;;6.25;69.66;97672.48;104878;1274;77943;-27
2022/03/30 03:45:59;;;;;;;11.90;6.70;;;;;;;6.07;70.03;97673.67;104970;1272;73461;-25
2022/03/30 03:48:28;;;;;;;11.60;7.80;;;;;;;5.85;71.33;97673.73;104866;1274;61583;-29
2022/03/30 03:50:58;;;;;;;11.90;7.90;;;;;;;5.63;72.60;97677.66;105010;1273;62341;-29
2022/03/30 03:53:27;;;;;;;12.70;7.90;;;;;;;5.47;72.71;97679.30;104779;1273;75557;-27
2022/03/30 03:55:57;;;;;;;10.20;6.00;;;;;;;5.39;72.74;97674.30;104812;1272;75984;-27
2022/03/30 03:58:26;;;;;;;10.50;6.30;;;;;;;5.95;72.56;97679.98;104751;1274;74246;-27
2022/03/30 04:00:56;;;;;;;10.60;6.50;;;;;;;6.62;70.50;97684.56;104989;1274;63827;-29
2022/03/30 04:03:25;;;;;;;11.70;6.60;;;;;;;6.76;69.60;97686.25;105070;1274;62009;-28
2022/03/30 04:05:55;;;;;;;8.70;6.90;;;;;;;6.63;69.78;97684.44;105010;1274;74871;-29
2022/03/30 04:08:25;;;;;;;14.20;8.30;;;;;;;6.44;70.47;97687.66;104992;1274;76043;-26
2022/03/30 04:10:54;;;;;;;11.40;7.80;;;;;;;6.20;71.26;97692.42;104768;1274;74368;-26
2022/03/30 04:13:25;;;;;;;14.10;8.10;;;;;;;5.94;72.38;97692.45;104717;1274;62125;-26
2022/03/30 04:15:54;;;;;;;13.20;8.40;;;;;;;5.67;73.95;97697.08;104819;1274;62016;-26
2022/03/30 04:18:24;;;;;;;12.20;6.70;;;;;;;5.48;74.81;97696.75;104751;1274;74792;-26
2022/03/30 04:20:53;;;;;;;14.30;6.20;;;;;;;5.89;74.53;97697.58;104965;1273;74150;-26
2022/03/30 04:23:23;;;;;;;11.30;7.40;;;;;;;6.48;72.12;97703.51;105116;1273;74366;-26
2022/03/30 04:25:53;;;;;;;9.60;6.10;;;;;;;6.58;71.32;97705.55;105152;1274;62077;-25
2022/03/30 04:28:22;;;;;;;11.10;7.60;;;;;;;6.44;71.58;97703.64;105163;1274;61936;-26
2022/03/30 04:30:51;;;;;;;12.20;7.50;;;;;;;6.25;72.05;97704.39;104982;1274;72476;-26
2022/03/30 04:33:21;;;;;;;12.70;7.10;;;;;;;6.04;72.86;97701.84;104940;1274;76203;-24
2022/03/30 04:35:50;;;;;;;14.80;7.70;;;;;;;5.85;73.64;97707.02;105113;1273;74258;-24
2022/03/30 04:38:19;;;;;;;13.10;7.00;;;;;;;5.67;74.36;97706.62;105083;1274;63162;-24
2022/03/30 04:40:48;;;;;;;14.40;6.40;;;;;;;5.53;75.23;97706.16;105091;1274;61157;-24
2022/03/30 04:43:18;;;;;;;10.50;5.10;;;;;;;6.03;75.05;97708.96;105128;1274;73961;-24
2022/03/30 04:45:48;;;;;;;10.30;6.60;;;;;;;6.63;73.12;97709.45;105071;1274;75907;-24
2022/03/30 04:48:19;;;;;;;11.20;6.50;;;;;;;6.75;72.33;97711.21;105081;1274;74385;-25
2022/03/30 04:50:49;;;;;;;11.70;6.30;;;;;;;6.63;72.18;97714.81;105134;1274;62053;-24
2022/03/30 04:53:18;;;;;;;10.40;7.00;;;;;;;6.43;72.64;97716.48;104795;1274;62111;-24
2022/03/30 04:55:48;;;;;;;9.80;6.90;;;;;;;6.22;73.72;97717.89;104753;1274;74328;-25
2022/03/30 04:58:17;;;;;;;11.40;6.90;;;;;;;6.02;74.55;97715.60;104938;1273;75977;-24
2022/03/30 05:00:46;;;;;;;11.50;7.00;;;;;;;5.86;75.49;97716.71;104867;1274;73227;-24
2022/03/30 05:03:16;;;;;;;8.40;5.00;;;;;;;5.76;76.00;97712.67;104856;1273;61906;-25
2022/03/30 05:05:45;;;;;;;8.00;5.60;;;;;;;6.30;75.64;97716.40;104854;1274;61034;-24
2022/03/30 05:08:15;;;;;;;9.20;5.80;;;;;;;6.97;73.67;97722.91;104803;1274;75623;-25
2022/03/30 05:10:54;;;;;;;13.10;7.30;;;;;;;7.09;72.85;97720.67;104742;1274;75862;-25
2022/03/30 05:13:24;;;;;;;10.50;7.30;;;;;;;6.91;72.53;97718.71;104689;1274;74379;-25
2022/03/30 05:15:53;;;;;;;10.60;6.80;;;;;;;6.71;73.26;97714.06;104845;1271;61833;-25
2022/03/30 05:18:23;;;;;;;9.80;7.00;;;;;;;6.53;74.10;97720.52;105075;1274;61006;-25
2022/03/30 05:20:53;;;;;;;10.20;7.10;;;;;;;6.34;74.93;97721.58;105085;1274;75530;-25
2022/03/30 05:23:22;;;;;;;13.30;6.70;;;;;;;6.18;75.96;97718.65;105002;1272;75364;-25
2022/03/30 05:25:54;;;;;;;7.80;5.10;;;;;;;6.04;77.16;97720.96;104774;1274;73379;-25
2022/03/30 05:28:23;;;;;;;9.70;6.50;;;;;;;6.52;76.52;97726.60;105097;1271;62520;-26
2022/03/30 05:30:53;;;;;;;11.80;7.40;;;;;;;7.04;74.67;97723.46;105145;1271;61111;-26
2022/03/30 05:33:23;;;;;;;13.90;9.20;;;;;;;7.14;73.85;97722.59;105179;1272;75605;-26
2022/03/30 05:35:52;;;;;;;11.40;8.00;;;;;;;7.01;74.53;97718.09;105029;1274;75992;-26
2022/03/30 05:38:21;;;;;;;15.00;8.60;;;;;;;6.81;74.93;97723.09;104798;1272;74296;-26
2022/03/30 05:40:51;;;;;;;13.40;8.60;;;;;;;6.60;75.64;97722.95;105056;1271;61048;-26
2022/03/30 05:43:21;;;;;;;11.60;7.90;;;;;;;6.42;76.97;97720.38;104943;1274;62077;-26
2022/03/30 05:45:51;;;;;;;10.30;6.40;;;;;;;6.34;76.81;97718.94;105053;1271;74371;-28
2022/03/30 05:48:21;;;;;;;11.40;6.50;;;;;;;6.91;75.95;97721.67;105150;1271;76032;-28
2022/03/30 05:50:52;;;;;;;13.50;7.80;;;;;;;7.46;74.24;97729.50;105028;1274;73499;-26
2022/03/30 05:53:21;;;;;;;12.10;8.20;;;;;;;7.54;72.93;97720.88;104760;1274;61461;-28
2022/03/30 05:55:51;;;;;;;11.70;7.20;;;;;;;7.39;72.94;97720.30;104796;1271;62009;-27
2022/03/30 05:58:21;;;;;;;10.90;8.00;;;;;;;7.16;74.27;97719.89;104936;1274;75548;-29
2022/03/30 06:00:51;;;;;;;15.30;8.70;;;;;;;6.93;75.24;97722.39;104835;1274;76005;-28
2022/03/30 06:03:20;;;;;;;12.50;8.00;;;;;;;6.81;75.69;97722.89;104828;1271;74249;-28
2022/03/30 06:05:51;;;;;;;12.10;6.40;;;;;;;6.70;76.24;97728.03;104895;1271;62703;-28
2022/03/30 06:08:20;;;;;;;12.30;7.40;;;;;;;7.16;75.74;97729.40;104719;1274;61195;-26
2022/03/30 06:10:50;;;;;;;14.10;8.40;;;;;;;7.58;73.53;97730.46;104812;1271;75270;-27
2022/03/30 06:13:19;;;;;;;13.70;8.50;;;;;;;7.62;73.13;97728.42;105136;1271;75512;-26
2022/03/30 06:15:48;;;;;;;14.00;8.50;;;;;;;7.40;73.47;97730.85;105066;1273;73175;-26
2022/03/30 06:18:18;;;;;;;15.80;9.00;;;;;;;7.26;74.31;97731.75;104867;1271;61144;-28
2022/03/30 06:20:51;;;;;;;12.20;9.00;;;;;;;7.08;75.54;97732.66;105043;1271;61942;-28
2022/03/30 06:23:21;;;;;;;15.30;9.90;;;;;;;6.89;75.92;97733.98;105103;1271;75432;-28
2022/03/30 06:25:51;;;;;;;13.20;7.70;;;;;;;6.78;76.97;97732.45;104873;1271;76062;-27
2022/03/30 06:28:23;;;;;;;11.40;7.30;;;;;;;7.34;75.67;97738.80;105083;1274;74307;-26
2022/03/30 06:30:52;;;;;;;12.60;8.10;;;;;;;7.93;73.18;97739.45;105133;1272;62054;-26
2022/03/30 06:33:22;;;;;;;17.20;9.90;;;;;;;8.00;72.45;97742.29;105114;1274;60969;-26
2022/03/30 06:35:51;;;;;;;15.00;9.80;;;;;;;7.85;72.92;97745.13;104846;1274;76375;-27
2022/03/30 06:38:21;;;;;;;13.90;9.30;;;;;;;7.62;73.33;97746.66;104618;1273;74861;-28
2022/03/30 06:40:50;;;;;;;15.00;9.30;;;;;;;7.43;73.58;97745.98;104643;1273;74125;-27
2022/03/30 06:43:19;;;;;;;15.10;9.50;;;;;;;7.29;74.34;97742.59;104611;1274;61941;-27
2022/03/30 06:45:50;;;;;;;11.00;7.10;;;;;;;7.16;74.77;97742.63;104720;1273;61893;-27
2022/03/30 06:48:19;;;;;;;12.10;7.20;;;;;;;7.59;74.25;97741.45;104646;1274;75515;-27
2022/03/30 06:50:49;;;;;;;12.20;8.50;;;;;;;8.17;72.68;97748.52;104628;1274;76073;-27
2022/03/30 06:53:18;;;;;;;15.40;9.40;;;;;;;8.29;71.82;97755.55;104930;1274;74388;-27
2022/03/30 06:55:48;;;;;;;16.20;10.10;;;;;;;8.09;72.33;97756.63;104635;1273;61161;-27
2022/03/30 06:58:17;;;;;;;14.40;9.60;;;;;;;7.84;72.68;97759.98;104643;1274;61218;-26
2022/03/30 07:00:50;;;;;;;16.10;9.60;;;;;;;7.52;74.09;97768.52;104626;1273;75636;-26
2022/03/30 07:03:22;;;;;;;12.10;8.90;;;;;;;7.26;74.80;97768.33;104599;1274;74971;-27
2022/03/30 07:05:52;;;;;;;12.10;7.00;;;;;;;7.07;74.91;97765.88;104601;1273;74415;-28
2022/03/30 07:11:30;;;;;;;15.70;8.20;;;;;;;8.01;73.06;97766.91;104719;1273;63593;-26
2022/03/30 07:14:00;;;;;;;15.00;9.40;;;;;;;7.97;72.63;97766.73;104896;1273;75540;-27
2022/03/30 07:16:34;;;;;;;12.50;8.40;;;;;;;7.69;73.89;97767.36;104855;1273;74979;-28
2022/03/30 07:19:04;;;;;;;10.60;7.10;;;;;;;7.36;74.77;97765.75;104844;1274;74442;-28
2022/03/30 07:21:35;;;;;;;20.00;9.40;;;;;;;7.03;76.29;97771.71;105012;1273;61233;-30
2022/03/30 07:24:05;;;;;;;13.90;5.90;;;;;;;6.92;76.29;97779.02;104917;1273;61135;-28
2022/03/30 07:26:35;;;;;;;12.30;7.30;;;;;;;7.31;76.31;97778.98;104642;1274;75538;-28
2022/03/30 07:29:04;;;;;;;14.00;8.10;;;;;;;7.76;74.85;97775.83;104665;1273;75804;-28
2022/03/30 07:31:34;;;;;;;15.90;8.90;;;;;;;7.68;74.98;97775.00;104763;1273;74554;-28
2022/03/30 07:34:04;;;;;;;9.90;5.90;;;;;;;7.47;75.72;97774.14;104854;1273;62089;-28
2022/03/30 07:36:33;;;;;;;15.50;9.80;;;;;;;7.14;76.67;97772.37;104991;1274;61837;-28
2022/03/30 07:39:03;;;;;;;17.20;8.60;;;;;;;6.85;78.48;97772.55;104832;1274;75037;-28
2022/03/30 07:41:33;;;;;;;12.00;7.30;;;;;;;6.81;78.85;97766.73;104730;1273;73259;-26
2022/03/30 07:44:05;;;;;;;12.00;7.40;;;;;;;7.21;77.60;97774.13;104778;1274;74415;-29
2022/03/30 07:46:35;;;;;;;15.40;9.60;;;;;;;7.44;76.82;97775.45;104957;1273;62134;-29
2022/03/30 07:49:05;;;;;;;13.90;9.20;;;;;;;7.44;76.81;97778.89;104867;1273;61135;-29
2022/03/30 07:51:35;;;;;;;12.40;8.70;;;;;;;7.29;77.41;97788.30;104675;1273;75574;-29
2022/03/30 07:54:04;;;;;;;18.00;10.30;;;;;;;7.21;76.86;97791.05;104694;1273;76133;-29
2022/03/30 07:56:35;;;;;;;14.00;7.60;;;;;;;7.17;78.45;97794.20;104890;1273;74433;-29
2022/03/30 07:59:04;;;;;;;11.00;7.30;;;;;;;7.73;78.00;97797.02;104738;1273;61138;-29
2022/03/30 08:01:36;;;;;;;14.00;8.70;;;;;;;8.22;74.73;97794.56;104748;1273;61927;-28
2022/03/30 08:04:05;;;;;;;14.80;8.40;;;;;;;8.22;73.99;97797.16;104754;1274;74592;-29
2022/03/30 08:06:35;;;;;;;11.70;8.70;;;;;;;8.09;74.49;97801.21;105013;1273;76391;-29
2022/03/30 08:09:07;;;;;;;19.10;10.40;;;;;;;7.93;74.75;97802.38;105027;1273;74315;-29
2022/03/30 08:11:41;;;;;;;14.10;9.30;;;;;;;7.76;75.54;97803.48;104973;1273;61195;-28
2022/03/30 08:14:12;;;;;;;12.80;8.30;;;;;;;7.60;76.46;97804.40;105039;1273;61655;-28
2022/03/30 08:16:46;;;;;;;14.00;8.20;;;;;;;8.04;76.50;97806.50;105054;1273;75413;-29
2022/03/30 08:19:15;;;;;;;13.00;8.80;;;;;;;8.55;74.08;97805.89;105022;1273;75320;-29
2022/03/30 08:24:33;;;;;;;13.60;9.80;;;;;;;8.53;73.88;97799.58;104858;1275;61246;-29
2022/03/30 08:27:05;;;;;;;14.70;10.50;;;;;;;8.31;74.34;97795.83;105031;1273;62024;-29
2022/03/30 08:29:38;;;;;;;14.90;9.80;;;;;;;8.16;75.62;97796.92;104976;1273;75579;-29
2022/03/30 08:32:08;;;;;;;16.50;9.40;;;;;;;8.09;73.94;97796.21;104867;1273;76057;-29
2022/03/30 08:34:38;;;;;;;15.30;9.60;;;;;;;8.23;74.52;97795.14;104822;1273;74920;-29
2022/03/30 08:37:08;;;;;;;18.60;9.70;;;;;;;8.61;72.68;97797.73;104807;1274;62110;-29
2022/03/30 08:39:38;;;;;;;22.30;11.30;;;;;;;8.65;72.70;97803.23;105058;1272;62092;-30
2022/03/30 08:42:09;;;;;;;23.40;12.00;;;;;;;8.44;73.22;97798.58;105132;1274;75647;-30
2022/03/30 08:44:41;;;;;;;18.70;10.70;;;;;;;8.14;73.06;97797.13;105003;1274;76037;-30
2022/03/30 08:47:11;;;;;;;17.30;10.70;;;;;;;7.84;73.98;97799.38;105058;1274;73439;-30
2022/03/30 08:49:42;;;;;;;18.50;9.90;;;;;;;7.60;75.25;97796.84;104980;1273;61047;-30
2022/03/30 08:52:13;;;;;;;14.10;8.50;;;;;;;7.39;75.77;97794.30;105019;1274;61947;-30
2022/03/30 08:54:47;;;;;;;13.30;8.30;;;;;;;7.61;75.53;97791.86;104917;1274;75600;-29
2022/03/30 08:57:17;;;;;;;17.30;12.00;;;;;;;7.87;74.51;97793.02;104871;1274;76038;-30
2022/03/30 09:00:17;;;;;;;13.40;8.80;;;;;;;7.68;74.73;97787.98;105063;1274;75235;-30
2022/03/30 09:03:01;;;;;;;18.90;11.10;;;;;;;7.39;74.64;97783.41;104852;1271;62077;-30
2022/03/30 09:05:32;;;;;;;20.30;11.50;;;;;;;7.07;75.92;97776.94;104870;1274;61990;-29
2022/03/30 09:08:20;;;;;;;14.50;8.60;;;;;;;6.84;77.05;97780.25;105095;1273;74701;-29
2022/03/30 09:10:56;;;;;;;14.30;9.00;;;;;;;6.95;77.30;97779.70;105096;1274;76793;-29
2022/03/30 09:13:28;;;;;;;17.30;10.90;;;;;;;7.55;75.93;97779.09;104901;1274;74742;-27
2022/03/30 09:15:58;;;;;;;18.90;10.70;;;;;;;7.63;73.70;97771.15;104981;1274;61904;-27
2022/03/30 09:18:28;;;;;;;18.80;11.00;;;;;;;7.45;74.88;97781.33;105080;1271;61165;-27
2022/03/30 09:21:16;;;;;;;20.50;12.20;;;;;;;7.31;75.66;97774.14;104859;1274;75512;-27
2022/03/30 09:23:47;;;;;;;17.10;11.20;;;;;;;7.22;76.11;97775.06;104796;1271;76683;-27
2022/03/30 09:26:16;;;;;;;15.70;9.40;;;;;;;7.12;76.46;97771.44;104853;1271;74397;-27
2022/03/30 09:28:46;;;;;;;14.20;9.20;;;;;;;7.56;74.52;97776.29;104965;1274;62067;-27
2022/03/30 09:31:15;;;;;;;16.50;10.00;;;;;;;7.82;73.10;97782.43;104771;1274;61169;-27
2022/03/30 09:33:45;;;;;;;15.40;9.40;;;;;;;7.83;70.57;97779.38;104660;1274;74410;-27
2022/03/30 09:36:31;;;;;;;15.70;10.40;;;;;;;7.65;70.66;97771.63;105093;1274;75856;-27
2022/03/30 09:39:01;;;;;;;19.10;9.50;;;;;;;7.50;72.32;97777.70;104932;1274;74508;-27
2022/03/30 09:41:51;;;;;;;13.10;8.50;;;;;;;7.36;74.24;97775.91;104792;1274;62134;-27
2022/03/30 09:44:21;;;;;;;13.80;8.70;;;;;;;7.23;73.59;97774.31;104780;1274;61829;-28
2022/03/30 09:46:55;;;;;;;15.80;10.00;;;;;;;7.73;71.81;97772.66;105116;1274;75734;-28
2022/03/30 09:49:36;;;;;;;;;;;;;;;8.10;70.50;97774.70;104870;1274;75864;-26
2022/03/30 09:52:27;;;;;;;14.00;9.30;;;;;;;8.13;69.72;97776.91;105112;1274;74365;-26
2022/03/30 09:55:01;;;;;;;17.10;9.30;;;;;;;7.96;70.63;97775.97;105078;1274;61153;-26
2022/03/30 09:57:37;;;;;;;13.50;9.00;;;;;;;8.01;70.99;97773.30;104773;1274;62070;-26
2022/03/30 10:00:07;;;;;;;12.90;8.30;;;;;;;8.06;70.68;97764.20;104970;1274;74237;-27
2022/03/30 10:02:47;;;;;;;13.70;8.90;;;;;;;8.08;70.83;97759.84;105113;1274;76026;-28
2022/03/30 10:05:21;;;;;;;15.10;8.40;;;;;;;8.14;71.49;97756.35;104939;1274;73374;-27
2022/03/30 10:07:51;;;;;;;15.50;8.70;;;;;;;8.85;69.01;97758.81;105024;1274;61929;-27
2022/03/30 10:10:21;;;;;;;17.40;9.90;;;;;;;9.26;66.53;97759.13;104828;1274;61107;-27
2022/03/30 10:12:51;;;;;;;14.50;9.40;;;;;;;8.92;67.57;97761.45;104782;1273;73661;-27
2022/03/30 10:15:21;;;;;;;18.50;11.00;;;;;;;8.56;69.22;97759.48;104814;1274;76049;-27
2022/03/30 10:17:50;;;;;;;17.00;10.70;;;;;;;8.43;68.63;97749.77;104758;1272;73147;-27
2022/03/30 10:20:20;;;;;;;16.10;10.70;;;;;;;8.44;69.18;97750.18;104789;1274;62050;-29
2022/03/30 10:23:26;;;;;;;30.50;11.70;;;;;;;8.54;69.32;97749.75;104656;1275;61298;-27
2022/03/30 10:26:01;;;;;;;;;;;;;;;8.59;69.56;97752.61;104759;1274;75484;-27
2022/03/30 10:28:40;;;;;;;18.30;11.80;;;;;;;8.33;69.60;97748.08;104714;1274;76166;-27
2022/03/30 10:31:10;;;;;;;21.10;12.40;;;;;;;8.03;70.09;97749.58;104738;1273;73542;-29
2022/03/30 10:33:42;;;;;;;14.80;8.10;;;;;;;8.19;71.24;97751.79;104755;1274;62129;-29
2022/03/30 10:36:24;;;;;;;14.10;7.80;;;;;;;8.99;67.10;97750.59;104780;1274;62046;-27
2022/03/30 10:39:14;;;;;;;16.30;10.30;;;;;;;9.32;66.17;97750.77;105120;1273;75761;-27
2022/03/30 10:42:11;;;;;;;16.40;11.10;;;;;;;9.30;65.95;97752.85;105133;1274;74988;-26
2022/03/30 10:44:44;;;;;;;16.60;10.30;;;;;;;9.34;64.37;97747.44;105106;1274;74894;-29
2022/03/30 10:47:21;;;;;;;15.30;9.70;;;;;;;9.08;64.42;97744.89;104907;1274;61179;-28
2022/03/30 10:49:58;;;;;;;21.30;12.50;;;;;;;8.89;65.79;97735.23;105120;1274;62047;-28
2022/03/30 10:52:42;;;;;;;18.60;11.50;;;;;;;8.77;66.51;97741.03;104785;1274;75329;-29
2022/03/30 10:55:12;;;;;;;19.50;12.20;;;;;;;8.76;66.39;97741.33;104760;1274;74926;-30
2022/03/30 10:58:02;;;;;;;17.50;10.40;;;;;;;8.60;66.89;97737.44;104804;1274;73672;-28
2022/03/30 11:00:34;;;;;;;20.40;12.10;;;;;;;8.43;68.06;97739.35;104606;1274;62387;-28
2022/03/30 11:03:20;;;;;;;20.50;11.00;;;;;;;8.33;68.15;97738.60;104761;1274;61040;-29
2022/03/30 11:06:00;;;;;;;14.20;10.50;;;;;;;8.16;68.56;97740.59;104671;1274;74538;-28
2022/03/30 11:08:34;;;;;;;18.20;9.80;;;;;;;8.05;68.01;97734.05;104713;1274;75976;-28
2022/03/30 11:11:04;;;;;;;18.90;11.30;;;;;;;8.51;66.82;97737.25;104798;1274;74470;-30
2022/03/30 11:13:33;;;;;;;17.00;10.50;;;;;;;8.83;66.16;97738.79;104789;1275;62475;-30
2022/03/30 11:16:06;;;;;;;24.00;14.80;;;;;;;8.62;66.80;97734.54;104803;1271;61794;-29
2022/03/30 11:18:35;;;;;;;26.80;14.70;;;;;;;8.44;66.85;97732.54;104732;1274;76007;-27
2022/03/30 11:21:08;;;;;;;21.70;12.00;;;;;;;8.19;67.36;97730.29;104662;1274;75600;-27
2022/03/30 11:23:39;;;;;;;23.50;13.40;;;;;;;8.08;68.17;97732.05;104772;1273;74491;-27
2022/03/30 11:26:10;;;;;;;23.40;13.00;;;;;;;7.93;68.80;97723.77;104730;1274;62258;-27
2022/03/30 11:28:41;;;;;;;22.90;13.70;;;;;;;7.70;69.38;97724.23;104812;1272;62078;-28
2022/03/30 11:31:21;;;;;;;22.60;11.90;;;;;;;7.52;70.75;97728.63;104623;1274;74649;-28
2022/03/30 11:34:36;;;;;;;18.70;10.90;;;;;;;7.76;70.16;97731.15;104792;1274;75981;-29
2022/03/30 11:37:08;;;;;;;26.90;15.40;;;;;;;8.23;68.61;97729.92;104809;1274;73292;-29
2022/03/30 11:39:38;;;;;;;25.10;14.50;;;;;;;8.30;67.65;97730.72;104697;1274;62380;-29
2022/03/30 11:42:07;;;;;;;27.90;15.90;;;;;;;8.00;68.35;97727.44;104740;1275;61062;-28
2022/03/30 11:45:12;;;;;;;25.40;14.60;;;;;;;7.64;69.91;97732.73;104856;1273;75303;-29
2022/03/30 11:47:48;;;;;;;26.00;14.20;;;;;;;7.77;69.28;97729.27;104833;1275;76014;-28
2022/03/30 11:50:30;;;;;;;27.20;15.10;;;;;;;7.80;69.05;97721.92;104670;1276;73524;-29
2022/03/30 11:53:11;;;;;;;22.60;13.80;;;;;;;7.88;69.32;97725.34;104783;1274;61176;-29
2022/03/30 11:56:05;;;;;;;26.00;14.20;;;;;;;8.00;68.76;97723.64;104493;1277;61436;-27
2022/03/30 11:58:41;;;;;;;18.40;10.10;;;;;;;8.26;69.94;97726.58;104756;1274;75278;-28
2022/03/30 12:01:12;;;;;;;22.30;13.10;;;;;;;9.12;66.38;97727.58;104681;1274;75040;-28
2022/03/30 12:03:41;;;;;;;20.90;12.50;;;;;;;9.70;64.91;97721.90;104576;1274;73949;-28